sensor_id;sensor_type;location;lat;lon;timestamp;P1;durP1;ratioP1;P2;durP2;ratioP2
30020;SDS011;16861;52.294;7.760;2023-07-31T00:02:14;2.53;;;1.60;;
30020;SDS011;16861;52.294;7.760;2023-07-31T00:04:40;1.92;;;1.42;;
30020;SDS011;16861;52.294;7.760;2023-07-31T00:07:07;2.22;;;1.48;;
30020;SDS011;16861;52.294;7.760;2023-07-31T00:09:33;2.85;;;1.20;;
30020;SDS011;16861;52.294;7.760;2023-07-31T00:12:00;2.60;;;1.35;;
30020;SDS011;16861;52.294;7.760;2023-07-31T00:14:27;2.13;;;1.30;;
30020;SDS011;16861;52.294;7.760;2023-07-31T00:16:54;2.03;;;1.30;;
30020;SDS011;16861;52.294;7.760;2023-07-31T00:19:20;2.47;;;1.58;;
30020;SDS011;16861;52.294;7.760;2023-07-31T00:21:47;1.88;;;1.50;;
30020;SDS011;16861;52.294;7.760;2023-07-31T00:24:13;5.03;;;1.50;;
30020;SDS011;16861;52.294;7.760;2023-07-31T00:26:40;2.05;;;1.52;;
30020;SDS011;16861;52.294;7.760;2023-07-31T00:29:07;1.70;;;1.38;;
30020;SDS011;16861;52.294;7.760;2023-07-31T00:31:33;2.17;;;1.60;;
30020;SDS011;16861;52.294;7.760;2023-07-31T00:34:00;3.78;;;1.40;;
30020;SDS011;16861;52.294;7.760;2023-07-31T00:36:27;1.75;;;1.40;;
30020;SDS011;16861;52.294;7.760;2023-07-31T00:38:53;1.92;;;1.60;;
30020;SDS011;16861;52.294;7.760;2023-07-31T00:41:20;1.77;;;1.42;;
30020;SDS011;16861;52.294;7.760;2023-07-31T00:43:46;1.38;;;1.27;;
30020;SDS011;16861;52.294;7.760;2023-07-31T00:46:13;1.52;;;1.42;;
30020;SDS011;16861;52.294;7.760;2023-07-31T00:48:40;2.22;;;1.60;;
30020;SDS011;16861;52.294;7.760;2023-07-31T00:51:07;1.55;;;1.35;;
30020;SDS011;16861;52.294;7.760;2023-07-31T00:53:34;1.60;;;1.50;;
30020;SDS011;16861;52.294;7.760;2023-07-31T00:56:01;1.63;;;1.20;;
30020;SDS011;16861;52.294;7.760;2023-07-31T00:58:29;1.70;;;1.35;;
30020;SDS011;16861;52.294;7.760;2023-07-31T01:00:56;1.95;;;1.50;;
30020;SDS011;16861;52.294;7.760;2023-07-31T01:03:22;2.00;;;1.52;;
30020;SDS011;16861;52.294;7.760;2023-07-31T01:05:58;1.60;;;1.50;;
30020;SDS011;16861;52.294;7.760;2023-07-31T01:09:16;1.75;;;1.23;;
30020;SDS011;16861;52.294;7.760;2023-07-31T01:11:28;3.22;;;1.98;;
30020;SDS011;16861;52.294;7.760;2023-07-31T01:13:57;5.60;;;1.67;;
30020;SDS011;16861;52.294;7.760;2023-07-31T01:16:25;4.35;;;1.60;;
30020;SDS011;16861;52.294;7.760;2023-07-31T01:18:52;1.90;;;1.70;;
30020;SDS011;16861;52.294;7.760;2023-07-31T01:23:55;1.73;;;1.63;;
30020;SDS011;16861;52.294;7.760;2023-07-31T01:26:26;3.75;;;1.90;;
30020;SDS011;16861;52.294;7.760;2023-07-31T01:33:58;1.77;;;1.20;;
30020;SDS011;16861;52.294;7.760;2023-07-31T01:36:28;1.48;;;1.38;;
30020;SDS011;16861;52.294;7.760;2023-07-31T01:38:59;1.40;;;1.27;;
30020;SDS011;16861;52.294;7.760;2023-07-31T01:41:27;2.25;;;1.42;;
30020;SDS011;16861;52.294;7.760;2023-07-31T01:43:53;3.42;;;1.23;;
30020;SDS011;16861;52.294;7.760;2023-07-31T01:46:20;1.15;;;1.05;;
30020;SDS011;16861;52.294;7.760;2023-07-31T01:48:47;1.48;;;1.30;;
30020;SDS011;16861;52.294;7.760;2023-07-31T01:51:13;2.15;;;1.55;;
30020;SDS011;16861;52.294;7.760;2023-07-31T01:53:40;3.55;;;1.38;;
30020;SDS011;16861;52.294;7.760;2023-07-31T01:56:06;2.47;;;1.30;;
30020;SDS011;16861;52.294;7.760;2023-07-31T01:58:33;2.25;;;1.40;;
30020;SDS011;16861;52.294;7.760;2023-07-31T02:00:59;1.83;;;1.50;;
30020;SDS011;16861;52.294;7.760;2023-07-31T02:03:26;2.65;;;1.50;;
30020;SDS011;16861;52.294;7.760;2023-07-31T02:05:53;1.80;;;1.30;;
30020;SDS011;16861;52.294;7.760;2023-07-31T02:08:20;1.83;;;1.45;;
30020;SDS011;16861;52.294;7.760;2023-07-31T02:13:30;1.52;;;1.20;;
30020;SDS011;16861;52.294;7.760;2023-07-31T02:15:57;2.47;;;1.67;;
30020;SDS011;16861;52.294;7.760;2023-07-31T02:18:24;1.80;;;1.27;;
30020;SDS011;16861;52.294;7.760;2023-07-31T02:20:51;1.48;;;1.20;;
30020;SDS011;16861;52.294;7.760;2023-07-31T02:23:18;3.35;;;1.05;;
30020;SDS011;16861;52.294;7.760;2023-07-31T02:25:45;1.48;;;1.10;;
30020;SDS011;16861;52.294;7.760;2023-07-31T02:28:12;1.23;;;0.90;;
30020;SDS011;16861;52.294;7.760;2023-07-31T02:30:39;1.27;;;0.88;;
30020;SDS011;16861;52.294;7.760;2023-07-31T02:33:06;1.05;;;0.93;;
30020;SDS011;16861;52.294;7.760;2023-07-31T02:35:32;1.25;;;0.70;;
30020;SDS011;16861;52.294;7.760;2023-07-31T02:37:59;1.75;;;0.88;;
30020;SDS011;16861;52.294;7.760;2023-07-31T02:40:26;1.23;;;0.70;;
30020;SDS011;16861;52.294;7.760;2023-07-31T02:42:52;0.82;;;0.70;;
30020;SDS011;16861;52.294;7.760;2023-07-31T02:45:19;0.88;;;0.60;;
30020;SDS011;16861;52.294;7.760;2023-07-31T02:47:45;0.60;;;0.60;;
30020;SDS011;16861;52.294;7.760;2023-07-31T02:50:12;0.82;;;0.50;;
30020;SDS011;16861;52.294;7.760;2023-07-31T02:52:39;0.75;;;0.75;;
30020;SDS011;16861;52.294;7.760;2023-07-31T02:55:05;0.50;;;0.50;;
30020;SDS011;16861;52.294;7.760;2023-07-31T02:57:32;1.00;;;0.50;;
30020;SDS011;16861;52.294;7.760;2023-07-31T02:59:59;0.75;;;0.50;;
30020;SDS011;16861;52.294;7.760;2023-07-31T03:02:26;0.82;;;0.55;;
30020;SDS011;16861;52.294;7.760;2023-07-31T03:04:53;1.77;;;0.50;;
30020;SDS011;16861;52.294;7.760;2023-07-31T03:07:19;2.65;;;0.50;;
30020;SDS011;16861;52.294;7.760;2023-07-31T03:09:46;0.40;;;0.40;;
30020;SDS011;16861;52.294;7.760;2023-07-31T03:12:12;0.82;;;0.35;;
30020;SDS011;16861;52.294;7.760;2023-07-31T03:14:39;0.40;;;0.40;;
30020;SDS011;16861;52.294;7.760;2023-07-31T03:17:06;1.17;;;0.38;;
30020;SDS011;16861;52.294;7.760;2023-07-31T03:19:32;1.13;;;0.40;;
30020;SDS011;16861;52.294;7.760;2023-07-31T03:21:59;1.27;;;0.70;;
30020;SDS011;16861;52.294;7.760;2023-07-31T03:24:26;1.10;;;1.00;;
30020;SDS011;16861;52.294;7.760;2023-07-31T03:26:54;2.90;;;1.17;;
30020;SDS011;16861;52.294;7.760;2023-07-31T03:29:21;1.33;;;1.10;;
30020;SDS011;16861;52.294;7.760;2023-07-31T03:31:50;5.13;;;2.10;;
30020;SDS011;16861;52.294;7.760;2023-07-31T03:34:16;6.35;;;2.72;;
30020;SDS011;16861;52.294;7.760;2023-07-31T03:36:43;6.07;;;3.45;;
30020;SDS011;16861;52.294;7.760;2023-07-31T03:39:10;6.45;;;3.60;;
30020;SDS011;16861;52.294;7.760;2023-07-31T03:41:37;7.00;;;3.65;;
30020;SDS011;16861;52.294;7.760;2023-07-31T03:44:03;8.40;;;4.28;;
30020;SDS011;16861;52.294;7.760;2023-07-31T03:46:30;12.90;;;5.47;;
30020;SDS011;16861;52.294;7.760;2023-07-31T03:48:57;10.00;;;5.28;;
30020;SDS011;16861;52.294;7.760;2023-07-31T03:51:23;10.95;;;5.20;;
30020;SDS011;16861;52.294;7.760;2023-07-31T03:53:50;14.85;;;6.45;;
30020;SDS011;16861;52.294;7.760;2023-07-31T03:56:17;12.07;;;5.57;;
30020;SDS011;16861;52.294;7.760;2023-07-31T03:58:43;11.80;;;6.82;;
30020;SDS011;16861;52.294;7.760;2023-07-31T04:01:10;11.38;;;6.32;;
30020;SDS011;16861;52.294;7.760;2023-07-31T04:03:37;12.15;;;6.32;;
30020;SDS011;16861;52.294;7.760;2023-07-31T04:06:03;11.27;;;6.57;;
30020;SDS011;16861;52.294;7.760;2023-07-31T04:08:30;12.85;;;6.50;;
30020;SDS011;16861;52.294;7.760;2023-07-31T04:10:56;17.48;;;7.65;;
30020;SDS011;16861;52.294;7.760;2023-07-31T04:13:23;16.83;;;6.93;;
30020;SDS011;16861;52.294;7.760;2023-07-31T04:15:50;14.63;;;7.38;;
30020;SDS011;16861;52.294;7.760;2023-07-31T04:18:17;15.80;;;6.75;;
30020;SDS011;16861;52.294;7.760;2023-07-31T04:20:44;12.45;;;6.40;;
30020;SDS011;16861;52.294;7.760;2023-07-31T04:23:11;14.23;;;6.45;;
30020;SDS011;16861;52.294;7.760;2023-07-31T04:25:37;15.13;;;5.95;;
30020;SDS011;16861;52.294;7.760;2023-07-31T04:28:04;13.45;;;6.28;;
30020;SDS011;16861;52.294;7.760;2023-07-31T04:30:31;11.13;;;6.25;;
30020;SDS011;16861;52.294;7.760;2023-07-31T04:32:58;12.63;;;5.78;;
30020;SDS011;16861;52.294;7.760;2023-07-31T04:35:24;10.90;;;5.70;;
30020;SDS011;16861;52.294;7.760;2023-07-31T04:37:51;15.68;;;5.57;;
30020;SDS011;16861;52.294;7.760;2023-07-31T04:40:18;9.77;;;5.30;;
30020;SDS011;16861;52.294;7.760;2023-07-31T04:42:44;17.08;;;6.20;;
30020;SDS011;16861;52.294;7.760;2023-07-31T04:45:11;12.93;;;6.13;;
30020;SDS011;16861;52.294;7.760;2023-07-31T04:47:37;10.43;;;6.07;;
30020;SDS011;16861;52.294;7.760;2023-07-31T04:50:04;12.15;;;5.97;;
30020;SDS011;16861;52.294;7.760;2023-07-31T04:52:31;13.35;;;5.88;;
30020;SDS011;16861;52.294;7.760;2023-07-31T04:54:58;11.50;;;5.97;;
30020;SDS011;16861;52.294;7.760;2023-07-31T04:57:25;12.65;;;6.53;;
30020;SDS011;16861;52.294;7.760;2023-07-31T04:59:51;15.20;;;6.68;;
30020;SDS011;16861;52.294;7.760;2023-07-31T05:02:18;12.60;;;6.38;;
30020;SDS011;16861;52.294;7.760;2023-07-31T05:04:44;12.52;;;6.75;;
30020;SDS011;16861;52.294;7.760;2023-07-31T05:07:11;14.45;;;6.57;;
30020;SDS011;16861;52.294;7.760;2023-07-31T05:09:38;19.05;;;6.93;;
30020;SDS011;16861;52.294;7.760;2023-07-31T05:12:05;14.23;;;6.85;;
30020;SDS011;16861;52.294;7.760;2023-07-31T05:14:32;14.48;;;6.72;;
30020;SDS011;16861;52.294;7.760;2023-07-31T05:16:59;12.15;;;6.38;;
30020;SDS011;16861;52.294;7.760;2023-07-31T05:19:25;17.13;;;7.78;;
30020;SDS011;16861;52.294;7.760;2023-07-31T05:21:52;16.58;;;7.47;;
30020;SDS011;16861;52.294;7.760;2023-07-31T05:24:19;16.20;;;6.85;;
30020;SDS011;16861;52.294;7.760;2023-07-31T05:26:45;19.08;;;7.43;;
30020;SDS011;16861;52.294;7.760;2023-07-31T05:29:12;13.85;;;6.78;;
30020;SDS011;16861;52.294;7.760;2023-07-31T05:31:38;17.92;;;8.10;;
30020;SDS011;16861;52.294;7.760;2023-07-31T05:34:05;18.42;;;7.13;;
30020;SDS011;16861;52.294;7.760;2023-07-31T05:36:32;17.23;;;6.85;;
30020;SDS011;16861;52.294;7.760;2023-07-31T05:38:58;15.20;;;6.95;;
30020;SDS011;16861;52.294;7.760;2023-07-31T05:41:25;17.90;;;6.45;;
30020;SDS011;16861;52.294;7.760;2023-07-31T05:43:52;18.67;;;7.18;;
30020;SDS011;16861;52.294;7.760;2023-07-31T05:46:18;14.38;;;6.45;;
30020;SDS011;16861;52.294;7.760;2023-07-31T05:48:45;14.38;;;6.13;;
30020;SDS011;16861;52.294;7.760;2023-07-31T05:51:11;17.17;;;6.43;;
30020;SDS011;16861;52.294;7.760;2023-07-31T05:53:38;18.77;;;7.18;;
30020;SDS011;16861;52.294;7.760;2023-07-31T05:56:07;12.07;;;6.35;;
30020;SDS011;16861;52.294;7.760;2023-07-31T05:58:33;19.30;;;7.32;;
30020;SDS011;16861;52.294;7.760;2023-07-31T06:01:00;15.27;;;6.93;;
30020;SDS011;16861;52.294;7.760;2023-07-31T06:03:27;18.23;;;7.07;;
30020;SDS011;16861;52.294;7.760;2023-07-31T06:05:54;17.58;;;6.18;;
30020;SDS011;16861;52.294;7.760;2023-07-31T06:08:20;13.30;;;6.97;;
30020;SDS011;16861;52.294;7.760;2023-07-31T06:10:47;14.35;;;6.97;;
30020;SDS011;16861;52.294;7.760;2023-07-31T06:13:14;13.30;;;6.50;;
30020;SDS011;16861;52.294;7.760;2023-07-31T06:15:40;13.75;;;6.05;;
30020;SDS011;16861;52.294;7.760;2023-07-31T06:18:07;13.93;;;5.68;;
30020;SDS011;16861;52.294;7.760;2023-07-31T06:20:34;13.00;;;6.40;;
30020;SDS011;16861;52.294;7.760;2023-07-31T06:23:01;16.60;;;6.00;;
30020;SDS011;16861;52.294;7.760;2023-07-31T06:25:27;16.08;;;6.30;;
30020;SDS011;16861;52.294;7.760;2023-07-31T06:27:54;13.70;;;5.82;;
30020;SDS011;16861;52.294;7.760;2023-07-31T06:30:20;15.48;;;6.97;;
30020;SDS011;16861;52.294;7.760;2023-07-31T06:32:47;11.90;;;6.32;;
30020;SDS011;16861;52.294;7.760;2023-07-31T06:35:14;16.95;;;6.25;;
30020;SDS011;16861;52.294;7.760;2023-07-31T06:37:40;13.00;;;5.85;;
30020;SDS011;16861;52.294;7.760;2023-07-31T06:40:09;17.60;;;6.70;;
30020;SDS011;16861;52.294;7.760;2023-07-31T06:42:36;13.60;;;6.15;;
30020;SDS011;16861;52.294;7.760;2023-07-31T06:45:03;14.13;;;6.18;;
30020;SDS011;16861;52.294;7.760;2023-07-31T06:47:30;14.38;;;6.60;;
30020;SDS011;16861;52.294;7.760;2023-07-31T06:49:56;16.73;;;6.05;;
30020;SDS011;16861;52.294;7.760;2023-07-31T06:52:23;17.13;;;6.10;;
30020;SDS011;16861;52.294;7.760;2023-07-31T06:57:29;15.35;;;6.38;;
30020;SDS011;16861;52.294;7.760;2023-07-31T06:59:56;17.00;;;6.40;;
30020;SDS011;16861;52.294;7.760;2023-07-31T07:02:23;15.63;;;6.47;;
30020;SDS011;16861;52.294;7.760;2023-07-31T07:04:49;15.55;;;6.10;;
30020;SDS011;16861;52.294;7.760;2023-07-31T07:07:16;14.90;;;6.20;;
30020;SDS011;16861;52.294;7.760;2023-07-31T07:09:43;10.27;;;5.65;;
30020;SDS011;16861;52.294;7.760;2023-07-31T07:12:09;15.38;;;6.30;;
30020;SDS011;16861;52.294;7.760;2023-07-31T07:14:36;18.33;;;6.18;;
30020;SDS011;16861;52.294;7.760;2023-07-31T07:17:02;13.70;;;5.53;;
30020;SDS011;16861;52.294;7.760;2023-07-31T07:19:30;17.73;;;6.13;;
30020;SDS011;16861;52.294;7.760;2023-07-31T07:21:56;12.65;;;5.35;;
30020;SDS011;16861;52.294;7.760;2023-07-31T07:24:23;15.90;;;5.85;;
30020;SDS011;16861;52.294;7.760;2023-07-31T07:26:49;12.18;;;5.80;;
30020;SDS011;16861;52.294;7.760;2023-07-31T07:29:16;13.55;;;5.18;;
30020;SDS011;16861;52.294;7.760;2023-07-31T07:31:43;9.32;;;4.60;;
30020;SDS011;16861;52.294;7.760;2023-07-31T07:34:09;9.77;;;4.90;;
30020;SDS011;16861;52.294;7.760;2023-07-31T07:36:36;15.15;;;5.10;;
30020;SDS011;16861;52.294;7.760;2023-07-31T07:39:04;8.18;;;4.38;;
30020;SDS011;16861;52.294;7.760;2023-07-31T07:41:31;10.00;;;5.00;;
30020;SDS011;16861;52.294;7.760;2023-07-31T07:43:57;10.75;;;4.97;;
30020;SDS011;16861;52.294;7.760;2023-07-31T07:46:24;12.13;;;4.97;;
30020;SDS011;16861;52.294;7.760;2023-07-31T07:48:51;10.95;;;4.78;;
30020;SDS011;16861;52.294;7.760;2023-07-31T07:51:17;11.13;;;4.65;;
30020;SDS011;16861;52.294;7.760;2023-07-31T07:53:44;9.20;;;4.45;;
30020;SDS011;16861;52.294;7.760;2023-07-31T07:56:10;7.43;;;4.40;;
30020;SDS011;16861;52.294;7.760;2023-07-31T07:58:37;9.20;;;4.25;;
30020;SDS011;16861;52.294;7.760;2023-07-31T08:01:03;9.60;;;4.82;;
30020;SDS011;16861;52.294;7.760;2023-07-31T08:03:30;6.72;;;4.18;;
30020;SDS011;16861;52.294;7.760;2023-07-31T08:06:00;9.27;;;3.80;;
30020;SDS011;16861;52.294;7.760;2023-07-31T08:08:30;10.32;;;4.00;;
30020;SDS011;16861;52.294;7.760;2023-07-31T08:10:56;9.10;;;3.85;;
30020;SDS011;16861;52.294;7.760;2023-07-31T08:13:23;7.32;;;3.50;;
30020;SDS011;16861;52.294;7.760;2023-07-31T08:15:50;6.22;;;3.40;;
30020;SDS011;16861;52.294;7.760;2023-07-31T08:18:16;5.50;;;3.00;;
30020;SDS011;16861;52.294;7.760;2023-07-31T08:20:44;5.55;;;3.28;;
30020;SDS011;16861;52.294;7.760;2023-07-31T08:23:10;6.18;;;2.75;;
30020;SDS011;16861;52.294;7.760;2023-07-31T08:25:37;9.05;;;2.50;;
30020;SDS011;16861;52.294;7.760;2023-07-31T08:28:05;3.90;;;2.13;;
30020;SDS011;16861;52.294;7.760;2023-07-31T08:30:32;3.78;;;1.80;;
30020;SDS011;16861;52.294;7.760;2023-07-31T08:33:02;3.03;;;1.88;;
30020;SDS011;16861;52.294;7.760;2023-07-31T08:35:29;2.20;;;1.73;;
30020;SDS011;16861;52.294;7.760;2023-07-31T08:37:56;3.17;;;1.65;;
30020;SDS011;16861;52.294;7.760;2023-07-31T08:40:22;2.45;;;1.85;;
30020;SDS011;16861;52.294;7.760;2023-07-31T08:42:50;4.25;;;1.70;;
30020;SDS011;16861;52.294;7.760;2023-07-31T08:45:19;2.22;;;1.50;;
30020;SDS011;16861;52.294;7.760;2023-07-31T08:47:48;3.63;;;1.80;;
30020;SDS011;16861;52.294;7.760;2023-07-31T08:50:20;1.75;;;1.33;;
30020;SDS011;16861;52.294;7.760;2023-07-31T08:52:48;1.67;;;1.45;;
30020;SDS011;16861;52.294;7.760;2023-07-31T08:55:15;1.20;;;1.10;;
30020;SDS011;16861;52.294;7.760;2023-07-31T08:57:43;1.20;;;1.08;;
30020;SDS011;16861;52.294;7.760;2023-07-31T09:00:10;1.45;;;1.10;;
30020;SDS011;16861;52.294;7.760;2023-07-31T09:02:38;1.27;;;1.10;;
30020;SDS011;16861;52.294;7.760;2023-07-31T09:07:37;0.75;;;0.75;;
30020;SDS011;16861;52.294;7.760;2023-07-31T09:10:04;1.10;;;1.00;;
30020;SDS011;16861;52.294;7.760;2023-07-31T09:12:31;1.67;;;0.80;;
30020;SDS011;16861;52.294;7.760;2023-07-31T09:14:58;1.00;;;0.82;;
30020;SDS011;16861;52.294;7.760;2023-07-31T09:17:28;1.65;;;1.02;;
30020;SDS011;16861;52.294;7.760;2023-07-31T09:20:15;1.15;;;1.05;;
30020;SDS011;16861;52.294;7.760;2023-07-31T09:22:47;1.05;;;0.95;;
30020;SDS011;16861;52.294;7.760;2023-07-31T09:27:48;1.58;;;0.90;;
30020;SDS011;16861;52.294;7.760;2023-07-31T09:30:21;1.88;;;0.90;;
30020;SDS011;16861;52.294;7.760;2023-07-31T09:32:48;1.30;;;1.00;;
30020;SDS011;16861;52.294;7.760;2023-07-31T09:35:27;1.15;;;1.05;;
30020;SDS011;16861;52.294;7.760;2023-07-31T09:37:57;1.17;;;1.02;;
30020;SDS011;16861;52.294;7.760;2023-07-31T09:43:06;0.93;;;0.90;;
30020;SDS011;16861;52.294;7.760;2023-07-31T09:45:34;1.43;;;1.20;;
30020;SDS011;16861;52.294;7.760;2023-07-31T09:48:08;1.40;;;1.00;;
30020;SDS011;16861;52.294;7.760;2023-07-31T09:50:37;1.13;;;0.77;;
30020;SDS011;16861;52.294;7.760;2023-07-31T09:53:06;1.00;;;0.90;;
30020;SDS011;16861;52.294;7.760;2023-07-31T09:55:33;0.90;;;0.90;;
30020;SDS011;16861;52.294;7.760;2023-07-31T09:58:04;1.65;;;1.02;;
30020;SDS011;16861;52.294;7.760;2023-07-31T10:00:33;2.10;;;0.85;;
30020;SDS011;16861;52.294;7.760;2023-07-31T10:03:01;1.00;;;0.90;;
30020;SDS011;16861;52.294;7.760;2023-07-31T10:05:34;2.15;;;1.00;;
30020;SDS011;16861;52.294;7.760;2023-07-31T10:08:21;1.45;;;1.10;;
30020;SDS011;16861;52.294;7.760;2023-07-31T10:10:55;1.40;;;0.93;;
30020;SDS011;16861;52.294;7.760;2023-07-31T10:13:25;0.88;;;0.88;;
30020;SDS011;16861;52.294;7.760;2023-07-31T10:15:54;1.15;;;1.05;;
30020;SDS011;16861;52.294;7.760;2023-07-31T10:18:25;1.45;;;0.90;;
30020;SDS011;16861;52.294;7.760;2023-07-31T10:20:52;1.00;;;1.00;;
30020;SDS011;16861;52.294;7.760;2023-07-31T10:23:21;1.05;;;0.95;;
30020;SDS011;16861;52.294;7.760;2023-07-31T10:25:50;3.25;;;1.10;;
30020;SDS011;16861;52.294;7.760;2023-07-31T10:28:20;1.20;;;1.10;;
30020;SDS011;16861;52.294;7.760;2023-07-31T10:30:47;1.10;;;0.95;;
30020;SDS011;16861;52.294;7.760;2023-07-31T10:33:15;1.40;;;1.30;;
30020;SDS011;16861;52.294;7.760;2023-07-31T10:35:46;3.95;;;1.20;;
30020;SDS011;16861;52.294;7.760;2023-07-31T10:38:14;1.40;;;1.30;;
30020;SDS011;16861;52.294;7.760;2023-07-31T10:40:40;1.33;;;1.23;;
30020;SDS011;16861;52.294;7.760;2023-07-31T10:43:07;1.20;;;1.10;;
30020;SDS011;16861;52.294;7.760;2023-07-31T10:45:38;1.42;;;1.30;;
30020;SDS011;16861;52.294;7.760;2023-07-31T10:48:15;1.25;;;1.15;;
30020;SDS011;16861;52.294;7.760;2023-07-31T10:53:23;3.42;;;1.30;;
30020;SDS011;16861;52.294;7.760;2023-07-31T10:55:51;1.83;;;1.30;;
30020;SDS011;16861;52.294;7.760;2023-07-31T10:58:19;1.40;;;1.23;;
30020;SDS011;16861;52.294;7.760;2023-07-31T11:00:47;1.27;;;1.17;;
30020;SDS011;16861;52.294;7.760;2023-07-31T11:05:52;3.92;;;1.15;;
30020;SDS011;16861;52.294;7.760;2023-07-31T11:08:26;2.45;;;1.10;;
30020;SDS011;16861;52.294;7.760;2023-07-31T11:13:30;1.83;;;1.50;;
30020;SDS011;16861;52.294;7.760;2023-07-31T11:15:57;1.25;;;1.15;;
30020;SDS011;16861;52.294;7.760;2023-07-31T11:18:24;1.20;;;1.10;;
30020;SDS011;16861;52.294;7.760;2023-07-31T11:20:53;1.35;;;1.25;;
30020;SDS011;16861;52.294;7.760;2023-07-31T11:23:21;1.48;;;1.38;;
30020;SDS011;16861;52.294;7.760;2023-07-31T11:25:48;2.13;;;1.33;;
30020;SDS011;16861;52.294;7.760;2023-07-31T11:28:16;1.60;;;1.50;;
30020;SDS011;16861;52.294;7.760;2023-07-31T11:30:44;3.00;;;1.30;;
30020;SDS011;16861;52.294;7.760;2023-07-31T11:33:12;2.22;;;1.60;;
30020;SDS011;16861;52.294;7.760;2023-07-31T11:35:44;2.58;;;1.50;;
30020;SDS011;16861;52.294;7.760;2023-07-31T11:38:12;1.98;;;1.70;;
30020;SDS011;16861;52.294;7.760;2023-07-31T11:40:51;1.58;;;1.48;;
30020;SDS011;16861;52.294;7.760;2023-07-31T11:43:20;1.70;;;1.60;;
30020;SDS011;16861;52.294;7.760;2023-07-31T11:46:04;1.50;;;1.40;;
30020;SDS011;16861;52.294;7.760;2023-07-31T11:48:36;2.65;;;2.03;;
30020;SDS011;16861;52.294;7.760;2023-07-31T11:51:07;2.53;;;1.60;;
30020;SDS011;16861;52.294;7.760;2023-07-31T11:53:44;1.85;;;1.70;;
30020;SDS011;16861;52.294;7.760;2023-07-31T11:56:15;2.10;;;2.00;;
30020;SDS011;16861;52.294;7.760;2023-07-31T11:58:44;1.58;;;1.48;;
30020;SDS011;16861;52.294;7.760;2023-07-31T12:01:16;1.77;;;1.58;;
30020;SDS011;16861;52.294;7.760;2023-07-31T12:03:46;1.70;;;1.60;;
30020;SDS011;16861;52.294;7.760;2023-07-31T12:06:13;1.85;;;1.70;;
30020;SDS011;16861;52.294;7.760;2023-07-31T12:08:40;2.95;;;1.75;;
30020;SDS011;16861;52.294;7.760;2023-07-31T12:11:07;2.28;;;2.08;;
30020;SDS011;16861;52.294;7.760;2023-07-31T12:13:39;3.13;;;2.33;;
30020;SDS011;16861;52.294;7.760;2023-07-31T12:16:06;4.13;;;2.50;;
30020;SDS011;16861;52.294;7.760;2023-07-31T12:18:34;2.30;;;2.10;;
30020;SDS011;16861;52.294;7.760;2023-07-31T12:21:04;2.72;;;2.40;;
30020;SDS011;16861;52.294;7.760;2023-07-31T12:23:32;2.72;;;2.53;;
30020;SDS011;16861;52.294;7.760;2023-07-31T12:28:37;2.67;;;2.25;;
30020;SDS011;16861;52.294;7.760;2023-07-31T12:31:11;4.25;;;2.67;;
30020;SDS011;16861;52.294;7.760;2023-07-31T12:33:40;3.50;;;2.80;;
30020;SDS011;16861;52.294;7.760;2023-07-31T12:36:11;3.47;;;2.80;;
30020;SDS011;16861;52.294;7.760;2023-07-31T12:38:40;3.10;;;2.75;;
30020;SDS011;16861;52.294;7.760;2023-07-31T12:41:07;4.43;;;2.50;;
30020;SDS011;16861;52.294;7.760;2023-07-31T12:43:35;4.63;;;3.15;;
30020;SDS011;16861;52.294;7.760;2023-07-31T12:46:02;3.90;;;2.95;;
30020;SDS011;16861;52.294;7.760;2023-07-31T12:48:30;4.93;;;3.08;;
30020;SDS011;16861;52.294;7.760;2023-07-31T12:50:58;3.75;;;3.30;;
30020;SDS011;16861;52.294;7.760;2023-07-31T12:53:24;6.00;;;3.50;;
30020;SDS011;16861;52.294;7.760;2023-07-31T12:55:51;5.28;;;3.70;;
30020;SDS011;16861;52.294;7.760;2023-07-31T12:58:17;4.88;;;4.40;;
30020;SDS011;16861;52.294;7.760;2023-07-31T13:00:44;3.75;;;3.45;;
30020;SDS011;16861;52.294;7.760;2023-07-31T13:03:11;4.90;;;3.70;;
30020;SDS011;16861;52.294;7.760;2023-07-31T13:05:37;8.10;;;3.97;;
30020;SDS011;16861;52.294;7.760;2023-07-31T13:08:04;4.82;;;3.88;;
30020;SDS011;16861;52.294;7.760;2023-07-31T13:10:33;4.03;;;3.58;;
30020;SDS011;16861;52.294;7.760;2023-07-31T13:13:00;5.55;;;3.92;;
30020;SDS011;16861;52.294;7.760;2023-07-31T13:15:26;6.63;;;4.63;;
30020;SDS011;16861;52.294;7.760;2023-07-31T13:17:53;4.32;;;3.92;;
30020;SDS011;16861;52.294;7.760;2023-07-31T13:20:20;5.68;;;3.95;;
30020;SDS011;16861;52.294;7.760;2023-07-31T13:22:46;5.53;;;3.75;;
30020;SDS011;16861;52.294;7.760;2023-07-31T13:25:13;6.30;;;3.85;;
30020;SDS011;16861;52.294;7.760;2023-07-31T13:27:40;4.43;;;3.63;;
30020;SDS011;16861;52.294;7.760;2023-07-31T13:30:07;5.75;;;3.53;;
30020;SDS011;16861;52.294;7.760;2023-07-31T13:32:34;5.30;;;4.18;;
30020;SDS011;16861;52.294;7.760;2023-07-31T13:35:08;4.80;;;3.40;;
30020;SDS011;16861;52.294;7.760;2023-07-31T13:37:35;4.22;;;3.28;;
30020;SDS011;16861;52.294;7.760;2023-07-31T13:40:02;3.78;;;3.05;;
30020;SDS011;16861;52.294;7.760;2023-07-31T13:42:31;4.45;;;2.92;;
30020;SDS011;16861;52.294;7.760;2023-07-31T13:44:58;3.63;;;3.08;;
30020;SDS011;16861;52.294;7.760;2023-07-31T13:47:25;4.05;;;2.85;;
30020;SDS011;16861;52.294;7.760;2023-07-31T13:49:52;2.88;;;2.65;;
30020;SDS011;16861;52.294;7.760;2023-07-31T13:52:18;3.47;;;3.10;;
30020;SDS011;16861;52.294;7.760;2023-07-31T13:54:45;3.83;;;2.78;;
30020;SDS011;16861;52.294;7.760;2023-07-31T13:57:12;3.90;;;3.50;;
30020;SDS011;16861;52.294;7.760;2023-07-31T13:59:38;4.10;;;2.92;;
30020;SDS011;16861;52.294;7.760;2023-07-31T14:02:05;5.22;;;3.50;;
30020;SDS011;16861;52.294;7.760;2023-07-31T14:04:32;4.22;;;3.05;;
30020;SDS011;16861;52.294;7.760;2023-07-31T14:06:58;4.93;;;3.65;;
30020;SDS011;16861;52.294;7.760;2023-07-31T14:09:25;5.72;;;3.40;;
30020;SDS011;16861;52.294;7.760;2023-07-31T14:11:53;5.18;;;3.83;;
30020;SDS011;16861;52.294;7.760;2023-07-31T14:14:19;6.22;;;3.22;;
30020;SDS011;16861;52.294;7.760;2023-07-31T14:16:45;5.22;;;3.55;;
30020;SDS011;16861;52.294;7.760;2023-07-31T14:19:12;5.97;;;4.03;;
30020;SDS011;16861;52.294;7.760;2023-07-31T14:21:39;6.80;;;3.30;;
30020;SDS011;16861;52.294;7.760;2023-07-31T14:24:05;4.55;;;3.70;;
30020;SDS011;16861;52.294;7.760;2023-07-31T14:26:32;5.78;;;3.70;;
30020;SDS011;16861;52.294;7.760;2023-07-31T14:28:58;6.80;;;4.00;;
30020;SDS011;16861;52.294;7.760;2023-07-31T14:31:25;5.30;;;3.42;;
30020;SDS011;16861;52.294;7.760;2023-07-31T14:33:51;4.70;;;3.45;;
30020;SDS011;16861;52.294;7.760;2023-07-31T14:36:22;3.97;;;3.42;;
30020;SDS011;16861;52.294;7.760;2023-07-31T14:38:48;4.10;;;3.58;;
30020;SDS011;16861;52.294;7.760;2023-07-31T14:41:14;5.70;;;3.70;;
30020;SDS011;16861;52.294;7.760;2023-07-31T14:43:41;4.57;;;3.10;;
30020;SDS011;16861;52.294;7.760;2023-07-31T14:46:07;4.18;;;2.72;;
30020;SDS011;16861;52.294;7.760;2023-07-31T14:48:34;4.40;;;3.15;;
30020;SDS011;16861;52.294;7.760;2023-07-31T14:51:00;4.15;;;2.95;;
30020;SDS011;16861;52.294;7.760;2023-07-31T14:53:27;4.22;;;2.85;;
30020;SDS011;16861;52.294;7.760;2023-07-31T14:55:53;4.55;;;2.88;;
30020;SDS011;16861;52.294;7.760;2023-07-31T14:58:19;3.63;;;3.08;;
30020;SDS011;16861;52.294;7.760;2023-07-31T15:00:46;3.83;;;3.28;;
30020;SDS011;16861;52.294;7.760;2023-07-31T15:03:12;3.42;;;2.72;;
30020;SDS011;16861;52.294;7.760;2023-07-31T15:05:39;4.00;;;2.85;;
30020;SDS011;16861;52.294;7.760;2023-07-31T15:08:05;4.05;;;2.53;;
30020;SDS011;16861;52.294;7.760;2023-07-31T15:10:32;4.22;;;2.63;;
30020;SDS011;16861;52.294;7.760;2023-07-31T15:12:58;3.55;;;2.40;;
30020;SDS011;16861;52.294;7.760;2023-07-31T15:15:25;3.58;;;2.58;;
30020;SDS011;16861;52.294;7.760;2023-07-31T15:17:51;4.18;;;2.40;;